createdAt,value
2023-05-05T00:01:34.179Z,100976.81
2023-05-05T00:04:01.659Z,100978.81
2023-05-05T00:06:29.022Z,100982.63
2023-05-05T00:08:56.309Z,100979.97
2023-05-05T00:11:23.783Z,100977.72
2023-05-05T00:13:51.466Z,100980.41
2023-05-05T00:16:18.708Z,100989.34
2023-05-05T00:18:46.144Z,100984.84
2023-05-05T00:21:13.353Z,100982.56
2023-05-05T00:23:40.467Z,100986.28
2023-05-05T00:26:07.868Z,100977.66
2023-05-05T00:28:35.072Z,100985.31
2023-05-05T00:31:02.306Z,100971.69
2023-05-05T00:33:29.857Z,100974.28
2023-05-05T00:35:57.023Z,100972.81
2023-05-05T00:38:24.092Z,100974.88
2023-05-05T00:40:51.502Z,100971.34
2023-05-05T00:43:18.677Z,100970.81
2023-05-05T00:45:47.914Z,100970.03
2023-05-05T00:48:17.005Z,100968.94
2023-05-05T00:50:45.078Z,100969.91
2023-05-05T00:53:12.270Z,100970.81
2023-05-05T00:55:40.443Z,100966.16
2023-05-05T00:58:07.950Z,100971.34
2023-05-05T01:00:35.157Z,100969.63
2023-05-05T01:03:03.217Z,100960.78
2023-05-05T01:05:41.648Z,100965.47
2023-05-05T01:08:44.395Z,100962.25
2023-05-05T01:11:37.687Z,100960.56
2023-05-05T01:14:24.719Z,100960.00
2023-05-05T01:16:58.407Z,100961.88
2023-05-05T01:19:59.512Z,100966.50
2023-05-05T01:22:36.928Z,100958.94
2023-05-05T01:25:27.134Z,100961.53
2023-05-05T01:28:13.066Z,100959.22
2023-05-05T01:31:25.945Z,100959.41
2023-05-05T01:34:01.845Z,100958.69
2023-05-05T01:36:34.828Z,100960.44
2023-05-05T01:39:03.088Z,100955.16
2023-05-05T01:41:47.032Z,100953.66
2023-05-05T01:44:16.251Z,100953.94
2023-05-05T01:46:43.607Z,100960.09
2023-05-05T01:49:11.220Z,100949.16
2023-05-05T01:51:39.215Z,100955.75
2023-05-05T01:54:10.652Z,100955.87
2023-05-05T01:56:39.169Z,100950.13
2023-05-05T01:59:07.159Z,100946.03
2023-05-05T02:01:37.473Z,100956.56
2023-05-05T02:04:06.359Z,100953.03
2023-05-05T02:06:33.995Z,100943.72
2023-05-05T02:09:02.563Z,100948.28
2023-05-05T02:11:30.155Z,100943.19
2023-05-05T02:13:57.986Z,100947.47
2023-05-05T02:16:25.566Z,100942.28
2023-05-05T02:18:54.399Z,100941.69
2023-05-05T02:21:22.797Z,100942.44
2023-05-05T02:23:51.945Z,100945.87
2023-05-05T02:26:21.779Z,100940.16
2023-05-05T02:29:07.259Z,100950.72
2023-05-05T02:31:38.370Z,100941.13
2023-05-05T02:34:07.560Z,100937.25
2023-05-05T02:36:38.687Z,100946.84
2023-05-05T02:39:18.273Z,100945.94
2023-05-05T02:41:47.327Z,100947.03
2023-05-05T02:44:17.028Z,100943.69
2023-05-05T02:46:44.405Z,100947.09
2023-05-05T02:49:12.391Z,100947.38
2023-05-05T02:51:40.925Z,100949.94
2023-05-05T02:54:10.035Z,100951.87
2023-05-05T02:56:41.312Z,100940.84
2023-05-05T02:59:22.274Z,100943.34
2023-05-05T03:02:09.278Z,100942.75
2023-05-05T03:04:43.155Z,100944.50
2023-05-05T03:07:14.423Z,100943.38
2023-05-05T03:09:54.061Z,100950.31
2023-05-05T03:12:27.944Z,100950.97
2023-05-05T03:14:58.282Z,100950.28
2023-05-05T03:17:28.139Z,100948.78
2023-05-05T03:19:55.725Z,100946.94
2023-05-05T03:22:23.189Z,100948.03
2023-05-05T03:24:51.632Z,100944.69
2023-05-05T03:27:20.456Z,100952.28
2023-05-05T03:29:47.893Z,100948.87
2023-05-05T03:32:15.797Z,100948.87
2023-05-05T03:34:43.355Z,100944.38
2023-05-05T03:37:10.564Z,100944.03
2023-05-05T03:39:38.715Z,100947.44
2023-05-05T03:42:06.969Z,100948.38
2023-05-05T03:44:35.222Z,100949.94
2023-05-05T03:47:02.868Z,100954.09
2023-05-05T03:49:30.741Z,100951.50
2023-05-05T03:51:58.090Z,100955.84
2023-05-05T03:54:25.679Z,100955.81
2023-05-05T03:56:52.866Z,100956.38
2023-05-05T03:59:20.085Z,100952.66
2023-05-05T04:01:48.998Z,100964.59
2023-05-05T04:04:17.309Z,100955.25
2023-05-05T04:06:44.546Z,100963.31
2023-05-05T04:09:13.772Z,100967.06
2023-05-05T04:11:41.317Z,100970.84
2023-05-05T04:14:10.127Z,100973.88
2023-05-05T04:16:37.862Z,100968.28
2023-05-05T04:19:05.444Z,100974.78
2023-05-05T04:21:32.800Z,100965.97
2023-05-05T04:24:00.048Z,100966.75
2023-05-05T04:26:27.798Z,100964.16
2023-05-05T04:28:55.819Z,100964.47
2023-05-05T04:31:23.319Z,100961.69
2023-05-05T04:33:51.378Z,100967.41
2023-05-05T04:36:19.245Z,100962.25
2023-05-05T04:38:47.044Z,100968.41
2023-05-05T04:41:14.535Z,100974.59
2023-05-05T04:43:42.138Z,100975.75
2023-05-05T04:46:09.376Z,100977.16
2023-05-05T04:48:37.958Z,100970.34
2023-05-05T04:51:06.451Z,100975.00
2023-05-05T04:53:33.911Z,100979.09
2023-05-05T04:56:02.622Z,100982.03
2023-05-05T04:58:29.896Z,100985.41
2023-05-05T05:00:57.489Z,100982.91
2023-05-05T05:03:25.325Z,100990.38
2023-05-05T05:05:53.196Z,100991.66
2023-05-05T05:08:20.459Z,100993.53
2023-05-05T05:10:48.028Z,100984.22
2023-05-05T05:13:15.377Z,100982.00
2023-05-05T05:15:42.917Z,100984.88
2023-05-05T05:18:10.444Z,100989.78
2023-05-05T05:20:38.653Z,100996.94
2023-05-05T05:23:05.914Z,100990.25
2023-05-05T05:25:33.669Z,100992.56
2023-05-05T05:28:08.733Z,100999.09
2023-05-05T05:30:38.294Z,101003.69
2023-05-05T05:33:06.191Z,101004.13
2023-05-05T05:35:33.638Z,100999.00
2023-05-05T05:38:01.326Z,101004.31
2023-05-05T05:40:28.579Z,100999.56
2023-05-05T05:42:56.174Z,101007.41
2023-05-05T05:45:23.940Z,101013.75
2023-05-05T05:47:51.233Z,101011.34
2023-05-05T05:50:18.721Z,101015.47
2023-05-05T05:52:46.337Z,101014.56
2023-05-05T05:55:13.660Z,101015.12
2023-05-05T05:57:41.390Z,101018.59
2023-05-05T06:00:09.939Z,101026.25
2023-05-05T06:02:39.042Z,101020.72
2023-05-05T06:05:08.039Z,101027.03
2023-05-05T06:07:35.457Z,101022.31
2023-05-05T06:10:14.403Z,101013.28
2023-05-05T06:12:46.610Z,101010.34
2023-05-05T06:15:13.850Z,101008.06
2023-05-05T06:17:41.177Z,101010.41
2023-05-05T06:20:09.342Z,101008.41
2023-05-05T06:22:36.618Z,101015.63
2023-05-05T06:25:04.332Z,101009.00
2023-05-05T06:27:31.892Z,101007.63
2023-05-05T06:29:59.072Z,101002.72
2023-05-05T06:32:26.295Z,100999.87
2023-05-05T06:34:53.753Z,100998.34
2023-05-05T06:37:20.906Z,100997.84
2023-05-05T06:39:47.996Z,100997.38
2023-05-05T06:42:15.458Z,101001.38
2023-05-05T06:44:42.631Z,101000.72
2023-05-05T06:47:09.832Z,100998.75
2023-05-05T06:49:37.298Z,100999.53
2023-05-05T06:52:04.638Z,100995.59
2023-05-05T06:54:31.788Z,100998.06
2023-05-05T06:56:59.807Z,101002.91
2023-05-05T06:59:27.027Z,100998.44
2023-05-05T07:01:54.266Z,101003.88
2023-05-05T07:04:21.633Z,101005.59
2023-05-05T07:06:48.750Z,101009.03
2023-05-05T07:09:17.100Z,101013.28
2023-05-05T07:11:46.379Z,101013.50
2023-05-05T07:14:13.583Z,101006.84
2023-05-05T07:16:40.973Z,100999.06
2023-05-05T07:19:08.516Z,101005.53
2023-05-05T07:21:35.835Z,101001.94
2023-05-05T07:24:03.551Z,100995.50
2023-05-05T07:26:31.269Z,100994.56
2023-05-05T07:28:58.967Z,100998.38
2023-05-05T07:31:26.621Z,101001.94
2023-05-05T07:33:54.192Z,100995.53
2023-05-05T07:36:21.374Z,101005.81
2023-05-05T07:38:48.435Z,101004.75
2023-05-05T07:41:16.146Z,101001.22
2023-05-05T07:43:44.665Z,101009.59
2023-05-05T07:46:12.267Z,101003.37
2023-05-05T07:48:41.602Z,101002.28
2023-05-05T07:51:09.790Z,101004.78
2023-05-05T07:53:37.328Z,101001.94
2023-05-05T07:56:04.805Z,101005.16
2023-05-05T07:58:32.038Z,101003.16
2023-05-05T08:00:59.483Z,101012.31
2023-05-05T08:03:27.194Z,101007.91
2023-05-05T08:05:55.537Z,101007.00
2023-05-05T08:08:26.946Z,101001.41
2023-05-05T08:10:54.554Z,100998.34
2023-05-05T08:13:21.741Z,100997.72
2023-05-05T08:15:48.967Z,101000.69
2023-05-05T08:18:16.328Z,100991.06
2023-05-05T08:20:43.444Z,100998.47
2023-05-05T08:23:10.565Z,100999.47
2023-05-05T08:25:37.996Z,100997.28
2023-05-05T08:28:05.153Z,100993.91
2023-05-05T08:30:34.851Z,100994.03
2023-05-05T08:33:02.295Z,100995.53
2023-05-05T08:35:29.439Z,101001.34
2023-05-05T08:37:58.930Z,101000.78
2023-05-05T08:40:30.456Z,101004.31
2023-05-05T08:42:57.554Z,101002.34
2023-05-05T08:45:24.783Z,100995.78
2023-05-05T08:47:52.219Z,101003.63
2023-05-05T08:50:19.779Z,100997.75
2023-05-05T08:52:51.154Z,100992.50
2023-05-05T08:55:26.889Z,100988.78
2023-05-05T08:57:57.798Z,100994.28
2023-05-05T09:00:27.173Z,100991.62
2023-05-05T09:02:59.398Z,100986.88
2023-05-05T09:05:27.176Z,100985.53
2023-05-05T09:07:54.383Z,100988.28
2023-05-05T09:10:21.616Z,100978.88
2023-05-05T09:12:51.128Z,100980.28
2023-05-05T09:15:18.637Z,100978.66
2023-05-05T09:17:46.565Z,100979.09
2023-05-05T09:20:14.838Z,100982.16
2023-05-05T09:22:47.083Z,100973.94
2023-05-05T09:25:16.408Z,100969.31
2023-05-05T09:27:47.237Z,100967.38
2023-05-05T09:30:23.982Z,100964.91
2023-05-05T09:32:53.136Z,100969.81
2023-05-05T09:35:21.973Z,100957.19
2023-05-05T09:37:49.265Z,100957.56
2023-05-05T09:40:18.271Z,100957.88
2023-05-05T09:42:46.165Z,100958.69
2023-05-05T09:45:19.609Z,100953.22
2023-05-05T09:47:47.686Z,100945.78
2023-05-05T09:50:18.552Z,100949.50
2023-05-05T09:52:57.229Z,100946.16
2023-05-05T09:55:25.485Z,100938.97
2023-05-05T09:57:52.968Z,100944.22
2023-05-05T10:00:20.691Z,100945.66
2023-05-05T10:02:48.206Z,100935.50
2023-05-05T10:05:17.142Z,100935.69
2023-05-05T10:07:45.824Z,100932.59
2023-05-05T10:10:15.216Z,100929.66
2023-05-05T10:12:43.127Z,100924.47
2023-05-05T10:15:11.692Z,100923.00
2023-05-05T10:18:05.198Z,100923.59
2023-05-05T10:20:33.602Z,100921.03
2023-05-05T10:23:02.793Z,100926.97
2023-05-05T10:25:33.822Z,100918.63
2023-05-05T10:28:06.445Z,100915.72
2023-05-05T10:30:37.263Z,100913.56
2023-05-05T10:33:30.167Z,100911.81
2023-05-05T10:36:02.323Z,100908.84
2023-05-05T10:38:33.921Z,100910.66
2023-05-05T10:41:02.158Z,100909.09
2023-05-05T10:43:30.791Z,100905.59
2023-05-05T10:45:58.435Z,100898.41
2023-05-05T10:48:35.058Z,100900.38
2023-05-05T10:51:13.188Z,100902.88
2023-05-05T10:53:46.717Z,100888.53
2023-05-05T10:56:22.180Z,100883.84
2023-05-05T10:58:59.263Z,100878.94
2023-05-05T11:01:34.679Z,100884.47
2023-05-05T11:04:21.983Z,100882.25
2023-05-05T11:07:09.658Z,100870.63
2023-05-05T11:09:57.464Z,100868.72
2023-05-05T11:12:24.968Z,100859.53
2023-05-05T11:15:26.487Z,100869.81
2023-05-05T11:17:55.529Z,100854.63
2023-05-05T11:20:43.675Z,100861.03
2023-05-05T11:23:11.249Z,100856.72
2023-05-05T11:25:40.537Z,100850.34
2023-05-05T11:28:16.323Z,100855.72
2023-05-05T11:30:59.405Z,100848.44
2023-05-05T11:33:29.235Z,100848.78
2023-05-05T11:36:01.828Z,100846.50
2023-05-05T11:38:33.345Z,100852.69
2023-05-05T11:41:08.089Z,100848.22
2023-05-05T11:43:35.575Z,100840.06
2023-05-05T11:46:13.559Z,100824.84
2023-05-05T11:48:52.813Z,100823.19
2023-05-05T11:51:20.337Z,100825.91
2023-05-05T11:53:50.207Z,100828.16
2023-05-05T11:56:19.667Z,100822.72
2023-05-05T11:58:50.187Z,100824.44
2023-05-05T12:01:17.469Z,100820.50
2023-05-05T12:03:45.846Z,100814.94
2023-05-05T12:06:13.451Z,100815.66
2023-05-05T12:08:41.392Z,100818.00
2023-05-05T12:11:10.683Z,100816.87
2023-05-05T12:13:37.992Z,100814.09
2023-05-05T12:16:12.827Z,100813.47
2023-05-05T12:18:41.116Z,100802.09
2023-05-05T12:21:20.868Z,100803.88
2023-05-05T12:23:48.373Z,100800.66
2023-05-05T12:26:29.241Z,100801.62
2023-05-05T12:28:58.270Z,100795.09
2023-05-05T12:31:39.059Z,100797.69
2023-05-05T12:34:08.465Z,100789.47
2023-05-05T12:36:36.301Z,100793.16
2023-05-05T12:39:06.508Z,100790.28
2023-05-05T12:41:34.399Z,100782.87
2023-05-05T12:44:03.128Z,100780.19
2023-05-05T12:46:31.869Z,100782.84
2023-05-05T12:49:05.372Z,100783.56
2023-05-05T12:51:33.402Z,100781.59
2023-05-05T12:54:03.160Z,100777.44
2023-05-05T12:56:33.449Z,100772.56
2023-05-05T12:59:02.419Z,100777.31
2023-05-05T13:01:30.224Z,100772.69
2023-05-05T13:04:13.994Z,100763.56
2023-05-05T13:06:42.582Z,100753.41
2023-05-05T13:09:23.091Z,100757.84
2023-05-05T13:11:50.629Z,100750.47
2023-05-05T13:14:17.790Z,100746.88
2023-05-05T13:16:44.977Z,100750.53
2023-05-05T13:19:12.521Z,100743.53
2023-05-05T13:21:39.669Z,100740.31
2023-05-05T13:24:19.788Z,100735.59
2023-05-05T13:26:53.499Z,100732.97
2023-05-05T13:29:20.692Z,100736.34
2023-05-05T13:31:47.890Z,100727.16
2023-05-05T13:34:15.488Z,100728.31
2023-05-05T13:36:42.675Z,100725.09
2023-05-05T13:39:09.932Z,100725.09
2023-05-05T13:41:37.390Z,100716.22
2023-05-05T13:44:04.713Z,100708.16
2023-05-05T13:46:31.942Z,100709.34
2023-05-05T13:48:59.443Z,100709.84
2023-05-05T13:51:26.693Z,100707.94
2023-05-05T13:53:53.960Z,100714.31
2023-05-05T13:56:23.483Z,100707.19
2023-05-05T13:58:50.825Z,100700.16
2023-05-05T14:01:18.077Z,100707.16
2023-05-05T14:03:45.724Z,100708.66
2023-05-05T14:06:12.909Z,100702.41
2023-05-05T14:08:40.049Z,100693.00
2023-05-05T14:11:07.475Z,100691.00
2023-05-05T14:13:34.721Z,100698.84
2023-05-05T14:16:02.125Z,100699.19
2023-05-05T14:18:29.713Z,100698.69
2023-05-05T14:20:56.934Z,100699.47
2023-05-05T14:23:24.098Z,100693.19
2023-05-05T14:25:51.541Z,100688.88
2023-05-05T14:28:18.737Z,100680.87
2023-05-05T14:30:46.379Z,100674.44
2023-05-05T14:33:13.873Z,100684.25
2023-05-05T14:35:41.170Z,100687.91
2023-05-05T14:38:08.422Z,100685.44
2023-05-05T14:40:35.919Z,100677.78
2023-05-05T14:43:03.113Z,100680.78
2023-05-05T14:45:30.285Z,100673.97
2023-05-05T14:47:57.837Z,100675.44
2023-05-05T14:50:24.969Z,100672.47
2023-05-05T14:52:52.162Z,100673.78
2023-05-05T14:55:19.692Z,100675.91
2023-05-05T14:57:46.914Z,100679.06
2023-05-05T15:00:14.547Z,100673.56
2023-05-05T15:02:42.048Z,100673.25
2023-05-05T15:05:10.478Z,100668.31
2023-05-05T15:07:37.932Z,100671.81
2023-05-05T15:10:06.363Z,100670.31
2023-05-05T15:12:33.734Z,100667.81
2023-05-05T15:15:00.927Z,100667.47
2023-05-05T15:17:28.685Z,100672.59
2023-05-05T15:19:55.883Z,100676.41
2023-05-05T15:22:23.093Z,100667.94
2023-05-05T15:24:50.629Z,100668.56
2023-05-05T15:27:18.587Z,100676.25
2023-05-05T15:29:46.253Z,100661.13
2023-05-05T15:32:13.752Z,100664.28
2023-05-05T15:34:40.950Z,100659.78
2023-05-05T15:37:08.162Z,100655.16
2023-05-05T15:39:35.670Z,100660.31
2023-05-05T15:42:03.785Z,100664.09
2023-05-05T15:44:31.695Z,100660.13
2023-05-05T15:46:59.298Z,100653.66
2023-05-05T15:49:26.623Z,100649.50
2023-05-05T15:51:53.818Z,100649.19
2023-05-05T15:54:21.401Z,100650.56
2023-05-05T15:56:49.621Z,100648.22
2023-05-05T15:59:16.833Z,100647.56
2023-05-05T16:01:44.403Z,100644.94
2023-05-05T16:04:12.101Z,100647.25
2023-05-05T16:06:39.237Z,100642.94
2023-05-05T16:09:06.337Z,100644.59
2023-05-05T16:11:33.745Z,100644.13
2023-05-05T16:14:00.852Z,100632.66
2023-05-05T16:16:27.987Z,100638.78
2023-05-05T16:18:55.430Z,100633.44
2023-05-05T16:21:22.572Z,100635.91
2023-05-05T16:23:49.699Z,100634.25
2023-05-05T16:26:17.072Z,100628.25
2023-05-05T16:28:44.134Z,100638.22
2023-05-05T16:31:11.517Z,100629.25
2023-05-05T16:33:40.934Z,100633.72
2023-05-05T16:36:14.789Z,100628.59
2023-05-05T16:38:42.183Z,100630.91
2023-05-05T16:41:10.689Z,100629.09
2023-05-05T16:43:37.844Z,100629.25
2023-05-05T16:46:06.361Z,100634.56
2023-05-05T16:48:33.495Z,100633.44
2023-05-05T16:51:00.858Z,100627.63
2023-05-05T16:53:28.247Z,100625.12
2023-05-05T16:55:55.423Z,100620.44
2023-05-05T16:58:22.936Z,100625.28
2023-05-05T17:00:50.901Z,100623.34
2023-05-05T17:03:19.253Z,100629.69
2023-05-05T17:05:50.447Z,100630.19
2023-05-05T17:08:17.940Z,100630.34
2023-05-05T17:10:46.233Z,100630.63
2023-05-05T17:13:14.453Z,100626.16
2023-05-05T17:15:50.185Z,100628.56
2023-05-05T17:18:20.153Z,100632.88
2023-05-05T17:20:49.105Z,100621.50
2023-05-05T17:23:16.691Z,100620.81
2023-05-05T17:25:43.932Z,100624.44
2023-05-05T17:28:11.432Z,100632.31
2023-05-05T17:30:38.498Z,100628.62
2023-05-05T17:33:05.782Z,100631.62
2023-05-05T17:35:33.290Z,100637.28
2023-05-05T17:38:00.476Z,100636.50
2023-05-05T17:40:27.690Z,100639.91
2023-05-05T17:42:55.103Z,100639.16
2023-05-05T17:45:22.220Z,100639.31
2023-05-05T17:47:49.338Z,100634.13
2023-05-05T17:50:16.823Z,100637.44
2023-05-05T17:52:45.074Z,100631.31
2023-05-05T17:55:12.640Z,100629.06
2023-05-05T17:57:40.290Z,100634.06
2023-05-05T18:00:08.960Z,100633.28
2023-05-05T18:02:39.816Z,100635.16
2023-05-05T18:05:08.647Z,100643.63
2023-05-05T18:07:35.957Z,100640.03
2023-05-05T18:10:03.068Z,100641.91
2023-05-05T18:12:30.535Z,100643.47
2023-05-05T18:14:57.606Z,100648.56
2023-05-05T18:17:24.747Z,100645.66
2023-05-05T18:19:52.188Z,100646.16
2023-05-05T18:22:19.417Z,100643.47
2023-05-05T18:24:47.052Z,100652.88
2023-05-05T18:27:14.437Z,100653.00
2023-05-05T18:29:41.674Z,100655.75
2023-05-05T18:32:10.138Z,100657.69
2023-05-05T18:34:37.570Z,100665.38
2023-05-05T18:37:04.649Z,100669.09
2023-05-05T18:39:31.789Z,100661.69
2023-05-05T18:41:59.380Z,100660.25
2023-05-05T18:44:26.712Z,100660.03
2023-05-05T18:46:53.901Z,100662.41
2023-05-05T18:49:22.037Z,100671.81
2023-05-05T18:51:49.152Z,100668.69
2023-05-05T18:54:16.244Z,100663.91
2023-05-05T18:56:43.620Z,100674.37
2023-05-05T18:59:10.729Z,100675.28
2023-05-05T19:01:37.823Z,100669.09
2023-05-05T19:04:08.512Z,100674.16
2023-05-05T19:06:40.028Z,100673.78
2023-05-05T19:09:07.361Z,100672.31
2023-05-05T19:11:34.476Z,100671.53
2023-05-05T19:14:01.551Z,100672.56
2023-05-05T19:16:30.127Z,100680.56
2023-05-05T19:19:00.145Z,100676.47
2023-05-05T19:21:27.742Z,100681.22
2023-05-05T19:23:55.188Z,100673.59
2023-05-05T19:26:24.382Z,100674.78
2023-05-05T19:28:51.532Z,100676.75
2023-05-05T19:31:18.978Z,100677.81
2023-05-05T19:33:46.103Z,100672.28
2023-05-05T19:36:13.255Z,100673.22
2023-05-05T19:38:44.553Z,100671.44
2023-05-05T19:41:12.312Z,100668.94
2023-05-05T19:43:39.422Z,100669.25
2023-05-05T19:46:06.864Z,100676.50
2023-05-05T19:48:33.998Z,100675.38
2023-05-05T19:51:01.126Z,100672.38
2023-05-05T19:53:28.572Z,100676.03
2023-05-05T19:55:55.840Z,100677.37
2023-05-05T19:58:23.027Z,100669.00
2023-05-05T20:00:50.497Z,100666.22
2023-05-05T20:03:17.980Z,100674.91
2023-05-05T20:05:45.163Z,100671.75
2023-05-05T20:08:12.267Z,100671.03
2023-05-05T20:10:39.627Z,100672.28
2023-05-05T20:13:06.829Z,100672.94
2023-05-05T20:15:34.051Z,100667.47
2023-05-05T20:18:01.725Z,100668.63
2023-05-05T20:20:28.990Z,100666.75
2023-05-05T20:22:56.142Z,100663.75
2023-05-05T20:25:23.676Z,100663.06
2023-05-05T20:27:50.827Z,100664.53
2023-05-05T20:30:18.104Z,100668.94
2023-05-05T20:32:45.591Z,100666.72
2023-05-05T20:35:13.067Z,100663.91
2023-05-05T20:37:40.398Z,100665.56
2023-05-05T20:40:08.714Z,100669.47
2023-05-05T20:42:36.997Z,100667.16
2023-05-05T20:45:04.982Z,100662.03
2023-05-05T20:47:34.373Z,100673.31
2023-05-05T20:50:01.585Z,100664.63
2023-05-05T20:52:28.962Z,100671.31
2023-05-05T20:54:56.408Z,100664.63
2023-05-05T20:57:23.630Z,100660.41
2023-05-05T20:59:50.775Z,100653.38
2023-05-05T21:02:18.876Z,100659.41
2023-05-05T21:04:46.151Z,100654.63
2023-05-05T21:07:13.354Z,100654.41
2023-05-05T21:09:40.933Z,100653.63
2023-05-05T21:12:08.139Z,100656.16
2023-05-05T21:14:35.866Z,100653.63
2023-05-05T21:17:03.411Z,100655.25
2023-05-05T21:19:30.676Z,100656.09
2023-05-05T21:21:59.204Z,100654.81
2023-05-05T21:24:28.026Z,100646.25
2023-05-05T21:26:56.351Z,100648.22
2023-05-05T21:29:24.770Z,100653.91
2023-05-05T21:31:52.246Z,100646.03
2023-05-05T21:34:20.174Z,100652.41
2023-05-05T21:36:47.384Z,100646.25
2023-05-05T21:39:14.878Z,100642.91
2023-05-05T21:41:42.083Z,100631.47
2023-05-05T21:44:09.263Z,100635.72
2023-05-05T21:46:36.787Z,100635.94
2023-05-05T21:49:20.255Z,100626.72
2023-05-05T21:51:47.686Z,100630.63
2023-05-05T21:54:14.854Z,100629.87
2023-05-05T21:56:42.080Z,100628.00
2023-05-05T21:59:09.539Z,100629.03
2023-05-05T22:01:36.993Z,100633.28
2023-05-05T22:04:04.731Z,100620.34
2023-05-05T22:06:32.504Z,100629.22
2023-05-05T22:08:59.788Z,100632.50
2023-05-05T22:11:27.399Z,100631.41
2023-05-05T22:13:54.493Z,100635.09
2023-05-05T22:16:21.739Z,100633.34
2023-05-05T22:18:49.689Z,100635.00
2023-05-05T22:21:16.860Z,100628.41
2023-05-05T22:23:44.040Z,100635.12
2023-05-05T22:26:11.685Z,100632.78
2023-05-05T22:28:38.859Z,100642.47
2023-05-05T22:31:05.977Z,100638.91
2023-05-05T22:33:33.407Z,100637.25
2023-05-05T22:36:00.707Z,100639.84
2023-05-05T22:38:27.797Z,100643.47
2023-05-05T22:40:55.171Z,100645.06
2023-05-05T22:43:22.282Z,100645.31
2023-05-05T22:45:49.539Z,100647.81
2023-05-05T22:48:16.965Z,100651.16
2023-05-05T22:50:44.063Z,100654.31
2023-05-05T22:53:11.174Z,100652.66
2023-05-05T22:55:38.641Z,100651.16
2023-05-05T22:58:06.336Z,100655.50
2023-05-05T23:00:33.460Z,100646.28
2023-05-05T23:03:00.965Z,100646.72
2023-05-05T23:05:28.057Z,100655.34
2023-05-05T23:07:55.171Z,100648.47
2023-05-05T23:10:22.555Z,100642.22
2023-05-05T23:12:49.682Z,100641.50
2023-05-05T23:15:16.904Z,100646.78
2023-05-05T23:17:44.354Z,100643.69
2023-05-05T23:20:13.162Z,100644.47
2023-05-05T23:22:40.337Z,100637.22
2023-05-05T23:25:08.652Z,100633.03
2023-05-05T23:27:35.947Z,100634.56
2023-05-05T23:30:03.154Z,100632.28
2023-05-05T23:32:30.775Z,100630.78
2023-05-05T23:34:57.876Z,100637.22
2023-05-05T23:37:25.593Z,100638.41
2023-05-05T23:39:52.982Z,100637.78
2023-05-05T23:42:20.086Z,100635.41
2023-05-05T23:44:47.202Z,100628.88
2023-05-05T23:47:14.629Z,100629.00
2023-05-05T23:49:41.756Z,100633.41
2023-05-05T23:52:09.478Z,100636.13
2023-05-05T23:54:36.845Z,100627.56
2023-05-05T23:57:04.010Z,100625.97
2023-05-05T23:59:31.200Z,100625.22
